ICX248 EGLC-EIKN
Flight info
| Callsign | ICX248 |
|---|---|
| Flight time | 1h 34m |
| Altitude | 22000 |
| Route | SAXBI1H SAXBI N27 HEN N84 DIDZA L9 OKSAW DCT LANON DCT MORAG DCT WTP DCT AGINI |
| Aircraft | AT46/M-SDFGIRY/S |
Departure
| Time | 2026-04-27 02:19 |
|---|---|
| Airport | London City Airport (EGLC) |
Arrival
| Time | 2026-04-27 03:53 |
|---|---|
| Airport | Ireland West Airport Knock (EIKN) |
| Time | Latitude | Longitude | Altitude | Speed | Heading |
|---|---|---|---|---|---|
| 2026-04-27 01:02 | 51.50458 | 0.04489 | 22 ft | 0 kts | 316° |
| 2026-04-27 02:05 | 51.50458 | 0.04488 | 22 ft | 0 kts | 316° |
| 2026-04-27 02:06 | 51.50459 | 0.04487 | 22 ft | 1 kts | 318° |
| 2026-04-27 02:06 | 51.50464 | 0.04485 | 22 ft | 0 kts | 352° |
| 2026-04-27 02:06 | 51.50470 | 0.04487 | 22 ft | 2 kts | 21° |
| 2026-04-27 02:06 | 51.50476 | 0.04503 | 22 ft | 2 kts | 83° |
| 2026-04-27 02:07 | 51.50476 | 0.04524 | 22 ft | 1 kts | 92° |
| 2026-04-27 02:07 | 51.50475 | 0.04557 | 22 ft | 4 kts | 94° |
| 2026-04-27 02:07 | 51.50472 | 0.04613 | 22 ft | 6 kts | 93° |
| 2026-04-27 02:07 | 51.50470 | 0.04675 | 22 ft | 6 kts | 91° |
| 2026-04-27 02:08 | 51.50469 | 0.04743 | 22 ft | 6 kts | 92° |
| 2026-04-27 02:08 | 51.50469 | 0.04749 | 22 ft | 0 kts | 92° |
| 2026-04-27 02:08 | 51.50469 | 0.04752 | 22 ft | 1 kts | 92° |
| 2026-04-27 02:08 | 51.50467 | 0.04785 | 22 ft | 4 kts | 94° |
| 2026-04-27 02:09 | 51.50465 | 0.04841 | 24 ft | 6 kts | 93° |
| 2026-04-27 02:09 | 51.50463 | 0.04909 | 24 ft | 6 kts | 92° |
| 2026-04-27 02:09 | 51.50461 | 0.04978 | 25 ft | 3 kts | 92° |
| 2026-04-27 02:09 | 51.50460 | 0.05022 | 22 ft | 5 kts | 92° |
| 2026-04-27 02:10 | 51.50456 | 0.05083 | 22 ft | 6 kts | 100° |
| 2026-04-27 02:10 | 51.50451 | 0.05151 | 23 ft | 6 kts | 96° |
| 2026-04-27 02:10 | 51.50447 | 0.05221 | 22 ft | 6 kts | 94° |
| 2026-04-27 02:10 | 51.50444 | 0.05292 | 22 ft | 6 kts | 93° |
| 2026-04-27 02:11 | 51.50442 | 0.05362 | 22 ft | 6 kts | 94° |
| 2026-04-27 02:11 | 51.50439 | 0.05433 | 22 ft | 6 kts | 93° |
| 2026-04-27 02:11 | 51.50437 | 0.05504 | 22 ft | 6 kts | 93° |
| 2026-04-27 02:11 | 51.50435 | 0.05575 | 23 ft | 6 kts | 92° |
| 2026-04-27 02:12 | 51.50434 | 0.05646 | 25 ft | 6 kts | 90° |
| 2026-04-27 02:12 | 51.50432 | 0.05717 | 25 ft | 6 kts | 92° |
| 2026-04-27 02:12 | 51.50430 | 0.05788 | 24 ft | 6 kts | 92° |
| 2026-04-27 02:12 | 51.50428 | 0.05859 | 24 ft | 6 kts | 93° |
| 2026-04-27 02:13 | 51.50424 | 0.05930 | 23 ft | 6 kts | 96° |
| 2026-04-27 02:13 | 51.50423 | 0.06001 | 23 ft | 6 kts | 90° |
| 2026-04-27 02:13 | 51.50422 | 0.06072 | 23 ft | 6 kts | 91° |
| 2026-04-27 02:13 | 51.50420 | 0.06141 | 24 ft | 6 kts | 93° |
| 2026-04-27 02:14 | 51.50418 | 0.06210 | 24 ft | 6 kts | 94° |
| 2026-04-27 02:14 | 51.50415 | 0.06271 | 24 ft | 5 kts | 94° |
| 2026-04-27 02:14 | 51.50412 | 0.06327 | 22 ft | 5 kts | 93° |
| 2026-04-27 02:14 | 51.50411 | 0.06390 | 22 ft | 6 kts | 91° |
| 2026-04-27 02:15 | 51.50410 | 0.06455 | 22 ft | 6 kts | 95° |
| 2026-04-27 02:15 | 51.50407 | 0.06521 | 22 ft | 4 kts | 95° |
| 2026-04-27 02:15 | 51.50412 | 0.06568 | 22 ft | 4 kts | 59° |
| 2026-04-27 02:15 | 51.50425 | 0.06584 | 22 ft | 0 kts | 21° |
| 2026-04-27 02:17 | 51.50431 | 0.06586 | 22 ft | 2 kts | 8° |
| 2026-04-27 02:18 | 51.50453 | 0.06589 | 22 ft | 4 kts | 1° |
| 2026-04-27 02:18 | 51.50484 | 0.06572 | 22 ft | 5 kts | 316° |
| 2026-04-27 02:18 | 51.50491 | 0.06541 | 22 ft | 0 kts | 272° |
| 2026-04-27 02:19 | 51.50494 | 0.06436 | 22 ft | 39 kts | 274° |
| 2026-04-27 02:19 | 51.50521 | 0.05555 | 22 ft | 115 kts | 274° |
| 2026-04-27 02:19 | 51.50563 | 0.04103 | 379 ft | 132 kts | 276° |
| 2026-04-27 02:19 | 51.50623 | 0.02527 | 785 ft | 153 kts | 273° |
| 2026-04-27 02:20 | 51.50654 | 0.00846 | 1483 ft | 149 kts | 272° |
| 2026-04-27 02:20 | 51.50813 | -0.00840 | 1803 ft | 163 kts | 299° |
| 2026-04-27 02:20 | 51.51723 | -0.01883 | 2168 ft | 166 kts | 353° |
| 2026-04-27 02:20 | 51.52872 | -0.01955 | 2735 ft | 167 kts | 359° |
| 2026-04-27 02:21 | 51.54101 | -0.02068 | 2940 ft | 192 kts | 358° |
| 2026-04-27 02:21 | 51.55454 | -0.02140 | 2979 ft | 189 kts | 12° |
| 2026-04-27 02:21 | 51.56545 | -0.01063 | 3004 ft | 188 kts | 50° |
| 2026-04-27 02:21 | 51.57387 | 0.00575 | 3005 ft | 192 kts | 53° |
| 2026-04-27 02:22 | 51.58225 | 0.02275 | 3006 ft | 195 kts | 51° |
| 2026-04-27 02:22 | 51.59362 | 0.03404 | 3014 ft | 199 kts | 11° |
| 2026-04-27 02:22 | 51.60732 | 0.03137 | 3016 ft | 201 kts | 345° |
| 2026-04-27 02:22 | 51.62047 | 0.02324 | 3015 ft | 204 kts | 336° |
| 2026-04-27 02:23 | 51.63297 | 0.01220 | 3014 ft | 206 kts | 330° |
| 2026-04-27 02:23 | 51.64507 | -0.00019 | 3012 ft | 207 kts | 328° |
| 2026-04-27 02:23 | 51.65710 | -0.01296 | 3009 ft | 208 kts | 328° |
| 2026-04-27 02:23 | 51.66925 | -0.02580 | 3007 ft | 209 kts | 328° |
| 2026-04-27 02:24 | 51.68148 | -0.03847 | 3007 ft | 210 kts | 328° |
| 2026-04-27 02:24 | 51.69386 | -0.05101 | 3008 ft | 211 kts | 329° |
| 2026-04-27 02:24 | 51.70632 | -0.06359 | 3008 ft | 212 kts | 329° |
| 2026-04-27 02:24 | 51.71883 | -0.07617 | 3004 ft | 212 kts | 329° |
| 2026-04-27 02:25 | 51.73140 | -0.08882 | 3000 ft | 213 kts | 329° |
| 2026-04-27 02:25 | 51.74342 | -0.10255 | 2995 ft | 212 kts | 312° |
| 2026-04-27 02:25 | 51.74965 | -0.12462 | 3000 ft | 226 kts | 282° |
| 2026-04-27 02:25 | 51.75166 | -0.15043 | 3002 ft | 238 kts | 272° |
| 2026-04-27 02:26 | 51.75209 | -0.17757 | 3004 ft | 246 kts | 270° |
| 2026-04-27 02:26 | 51.75225 | -0.20559 | 3000 ft | 253 kts | 269° |
| 2026-04-27 02:26 | 51.75221 | -0.23389 | 3220 ft | 245 kts | 269° |
| 2026-04-27 02:26 | 51.75223 | -0.26012 | 3898 ft | 223 kts | 270° |
| 2026-04-27 02:27 | 51.75243 | -0.28427 | 4544 ft | 208 kts | 271° |
| 2026-04-27 02:27 | 51.75275 | -0.30686 | 5153 ft | 195 kts | 271° |
| 2026-04-27 02:27 | 51.75308 | -0.32822 | 5733 ft | 186 kts | 272° |
| 2026-04-27 02:27 | 51.75339 | -0.34867 | 6275 ft | 179 kts | 272° |
| 2026-04-27 02:28 | 51.75370 | -0.36874 | 6722 ft | 178 kts | 272° |
| 2026-04-27 02:28 | 51.75402 | -0.38873 | 7148 ft | 179 kts | 272° |
| 2026-04-27 02:28 | 51.75435 | -0.40883 | 7551 ft | 179 kts | 272° |
| 2026-04-27 02:28 | 51.75465 | -0.42899 | 7946 ft | 180 kts | 272° |
| 2026-04-27 02:29 | 51.75494 | -0.44901 | 8328 ft | 181 kts | 272° |
| 2026-04-27 02:29 | 51.75523 | -0.46940 | 8710 ft | 182 kts | 272° |
| 2026-04-27 02:29 | 51.75553 | -0.48989 | 9084 ft | 183 kts | 272° |
| 2026-04-27 02:29 | 51.75582 | -0.51074 | 9463 ft | 184 kts | 272° |
| 2026-04-27 02:30 | 51.75612 | -0.53104 | 9842 ft | 183 kts | 272° |
| 2026-04-27 02:30 | 51.75640 | -0.55153 | 10233 ft | 182 kts | 272° |
| 2026-04-27 02:30 | 51.75670 | -0.57227 | 10439 ft | 193 kts | 272° |
| 2026-04-27 02:30 | 51.75713 | -0.59478 | 10535 ft | 205 kts | 272° |
| 2026-04-27 02:31 | 51.75766 | -0.61783 | 10824 ft | 206 kts | 272° |
| 2026-04-27 02:31 | 51.75809 | -0.64089 | 11141 ft | 205 kts | 271° |
| 2026-04-27 02:31 | 51.75842 | -0.66392 | 11444 ft | 205 kts | 271° |
| 2026-04-27 02:31 | 51.75875 | -0.68690 | 11753 ft | 204 kts | 271° |
| 2026-04-27 02:32 | 51.75903 | -0.70980 | 12055 ft | 204 kts | 271° |
| 2026-04-27 02:32 | 51.75933 | -0.73270 | 12353 ft | 204 kts | 271° |
| 2026-04-27 02:32 | 51.75961 | -0.75563 | 12634 ft | 205 kts | 270° |
| 2026-04-27 02:32 | 51.75990 | -0.77863 | 12902 ft | 205 kts | 271° |
| 2026-04-27 02:33 | 51.75879 | -0.80145 | 13159 ft | 205 kts | 251° |
| 2026-04-27 02:33 | 51.75324 | -0.82264 | 13369 ft | 206 kts | 246° |
| 2026-04-27 02:33 | 51.74725 | -0.84374 | 13619 ft | 207 kts | 246° |
| 2026-04-27 02:33 | 51.74130 | -0.86498 | 13867 ft | 208 kts | 247° |
| 2026-04-27 02:34 | 51.73749 | -0.87922 | 14029 ft | 209 kts | 248° |
| 2026-04-27 02:34 | 51.73196 | -0.90089 | 14274 ft | 210 kts | 249° |
| 2026-04-27 02:34 | 51.72648 | -0.92270 | 14520 ft | 210 kts | 249° |
| 2026-04-27 02:34 | 51.72102 | -0.94454 | 14758 ft | 210 kts | 249° |
| 2026-04-27 02:35 | 51.71556 | -0.96644 | 14984 ft | 211 kts | 249° |
| 2026-04-27 02:35 | 51.71006 | -0.98841 | 15201 ft | 212 kts | 249° |
| 2026-04-27 02:35 | 51.70455 | -1.01044 | 15413 ft | 212 kts | 249° |
| 2026-04-27 02:35 | 51.69900 | -1.03256 | 15620 ft | 213 kts | 249° |
| 2026-04-27 02:36 | 51.69344 | -1.05474 | 15818 ft | 214 kts | 249° |
| 2026-04-27 02:36 | 51.68787 | -1.07693 | 16027 ft | 214 kts | 249° |
| 2026-04-27 02:36 | 51.68228 | -1.09915 | 16216 ft | 214 kts | 249° |
| 2026-04-27 02:36 | 51.67667 | -1.12145 | 16399 ft | 215 kts | 249° |
| 2026-04-27 02:37 | 51.67104 | -1.14379 | 16577 ft | 216 kts | 249° |
| 2026-04-27 02:37 | 51.66539 | -1.16622 | 16752 ft | 216 kts | 249° |
| 2026-04-27 02:37 | 51.65973 | -1.18869 | 16916 ft | 217 kts | 249° |
| 2026-04-27 02:37 | 51.65404 | -1.21122 | 17078 ft | 217 kts | 249° |
| 2026-04-27 02:38 | 51.64833 | -1.23379 | 17235 ft | 218 kts | 249° |
| 2026-04-27 02:38 | 51.64260 | -1.25642 | 17399 ft | 218 kts | 249° |
| 2026-04-27 02:38 | 51.63688 | -1.27902 | 17554 ft | 218 kts | 249° |
| 2026-04-27 02:38 | 51.63137 | -1.30072 | 17694 ft | 219 kts | 249° |
| 2026-04-27 02:39 | 51.62561 | -1.32343 | 17835 ft | 219 kts | 249° |
| 2026-04-27 02:39 | 51.61983 | -1.34617 | 17968 ft | 220 kts | 249° |
| 2026-04-27 02:39 | 51.61404 | -1.36897 | 18102 ft | 220 kts | 249° |
| 2026-04-27 02:39 | 51.60939 | -1.39223 | 18183 ft | 219 kts | 267° |
| 2026-04-27 02:40 | 51.61302 | -1.41604 | 18273 ft | 223 kts | 293° |
| 2026-04-27 02:40 | 51.62040 | -1.43814 | 18424 ft | 224 kts | 297° |
| 2026-04-27 02:40 | 51.62837 | -1.45967 | 18573 ft | 224 kts | 298° |
| 2026-04-27 02:40 | 51.63631 | -1.48125 | 18694 ft | 224 kts | 297° |
| 2026-04-27 02:41 | 51.64395 | -1.50316 | 18802 ft | 225 kts | 296° |
| 2026-04-27 02:41 | 51.65136 | -1.52533 | 18915 ft | 225 kts | 296° |
| 2026-04-27 02:41 | 51.65874 | -1.54754 | 19023 ft | 225 kts | 295° |
| 2026-04-27 02:41 | 51.66615 | -1.56980 | 19128 ft | 226 kts | 295° |
| 2026-04-27 02:42 | 51.67356 | -1.59210 | 19237 ft | 226 kts | 295° |
| 2026-04-27 02:42 | 51.68095 | -1.61438 | 19350 ft | 225 kts | 295° |
| 2026-04-27 02:42 | 51.68835 | -1.63666 | 19447 ft | 226 kts | 295° |
| 2026-04-27 02:42 | 51.69579 | -1.65904 | 19534 ft | 227 kts | 295° |
| 2026-04-27 02:43 | 51.70308 | -1.68157 | 19629 ft | 227 kts | 294° |
| 2026-04-27 02:43 | 51.70995 | -1.70443 | 19717 ft | 227 kts | 292° |
| 2026-04-27 02:43 | 51.71655 | -1.72754 | 19803 ft | 227 kts | 292° |
| 2026-04-27 02:43 | 51.72311 | -1.75072 | 20035 ft | 227 kts | 291° |
| 2026-04-27 02:44 | 51.72952 | -1.77404 | 20324 ft | 228 kts | 291° |
| 2026-04-27 02:44 | 51.73596 | -1.79742 | 20607 ft | 229 kts | 292° |
| 2026-04-27 02:44 | 51.74256 | -1.82082 | 20870 ft | 230 kts | 292° |
| 2026-04-27 02:44 | 51.74933 | -1.84465 | 21042 ft | 235 kts | 292° |
| 2026-04-27 02:45 | 51.75617 | -1.86871 | 21292 ft | 236 kts | 292° |
| 2026-04-27 02:45 | 51.76303 | -1.89287 | 21535 ft | 237 kts | 292° |
| 2026-04-27 02:45 | 51.76990 | -1.91710 | 21777 ft | 238 kts | 292° |
| 2026-04-27 02:45 | 51.77688 | -1.94167 | 21891 ft | 244 kts | 292° |
| 2026-04-27 02:46 | 51.78404 | -1.96696 | 21947 ft | 251 kts | 292° |
| 2026-04-27 02:46 | 51.79140 | -1.99300 | 21975 ft | 258 kts | 292° |
| 2026-04-27 02:46 | 51.79895 | -2.01970 | 21991 ft | 265 kts | 292° |
| 2026-04-27 02:46 | 51.80665 | -2.04704 | 21991 ft | 270 kts | 292° |
| 2026-04-27 02:47 | 51.81449 | -2.07488 | 21996 ft | 274 kts | 292° |
| 2026-04-27 02:47 | 51.82243 | -2.10311 | 21996 ft | 278 kts | 292° |
| 2026-04-27 02:47 | 51.83045 | -2.13163 | 21999 ft | 280 kts | 292° |
| 2026-04-27 02:47 | 51.83856 | -2.16049 | 21998 ft | 283 kts | 292° |
| 2026-04-27 02:48 | 51.84672 | -2.18953 | 21996 ft | 284 kts | 292° |
| 2026-04-27 02:48 | 51.85489 | -2.21871 | 21996 ft | 286 kts | 292° |
| 2026-04-27 02:48 | 51.86309 | -2.24804 | 21996 ft | 287 kts | 292° |
| 2026-04-27 02:48 | 51.87132 | -2.27745 | 22002 ft | 287 kts | 292° |
| 2026-04-27 02:49 | 51.87954 | -2.30694 | 21991 ft | 288 kts | 292° |
| 2026-04-27 02:49 | 51.88780 | -2.33654 | 21989 ft | 288 kts | 292° |
| 2026-04-27 02:49 | 51.89605 | -2.36614 | 21992 ft | 289 kts | 292° |
| 2026-04-27 02:49 | 51.90430 | -2.39582 | 21992 ft | 289 kts | 292° |
| 2026-04-27 02:50 | 51.91254 | -2.42554 | 21990 ft | 289 kts | 292° |
| 2026-04-27 02:50 | 51.92080 | -2.45529 | 21991 ft | 290 kts | 292° |
| 2026-04-27 02:50 | 51.92906 | -2.48508 | 21993 ft | 290 kts | 291° |
| 2026-04-27 02:50 | 51.93731 | -2.51493 | 21992 ft | 290 kts | 291° |
| 2026-04-27 02:51 | 51.94556 | -2.54479 | 21988 ft | 291 kts | 291° |
| 2026-04-27 02:51 | 51.95381 | -2.57470 | 21988 ft | 291 kts | 291° |
| 2026-04-27 02:51 | 51.96205 | -2.60460 | 21994 ft | 291 kts | 291° |
| 2026-04-27 02:51 | 51.97031 | -2.63458 | 21989 ft | 291 kts | 291° |
| 2026-04-27 02:52 | 51.97856 | -2.66458 | 21986 ft | 291 kts | 291° |
| 2026-04-27 02:52 | 51.98679 | -2.69456 | 21987 ft | 291 kts | 291° |
| 2026-04-27 02:52 | 51.99501 | -2.72457 | 21991 ft | 291 kts | 291° |
| 2026-04-27 02:52 | 52.00326 | -2.75460 | 21990 ft | 292 kts | 291° |
| 2026-04-27 02:53 | 52.01148 | -2.78472 | 21990 ft | 292 kts | 292° |
| 2026-04-27 02:53 | 52.01971 | -2.81479 | 21994 ft | 292 kts | 292° |
| 2026-04-27 02:53 | 52.02792 | -2.84493 | 21992 ft | 292 kts | 292° |
| 2026-04-27 02:53 | 52.03615 | -2.87512 | 21987 ft | 292 kts | 292° |
| 2026-04-27 02:54 | 52.04436 | -2.90529 | 21988 ft | 292 kts | 292° |
| 2026-04-27 02:54 | 52.05255 | -2.93549 | 21985 ft | 292 kts | 292° |
| 2026-04-27 02:54 | 52.06077 | -2.96572 | 21990 ft | 292 kts | 292° |
| 2026-04-27 02:54 | 52.06897 | -2.99599 | 21991 ft | 293 kts | 292° |
| 2026-04-27 02:55 | 52.07717 | -3.02631 | 21987 ft | 293 kts | 292° |
| 2026-04-27 02:55 | 52.08536 | -3.05665 | 21990 ft | 293 kts | 292° |
| 2026-04-27 02:55 | 52.09356 | -3.08701 | 21990 ft | 294 kts | 292° |
| 2026-04-27 02:55 | 52.10175 | -3.11740 | 21990 ft | 294 kts | 292° |
| 2026-04-27 02:56 | 52.10997 | -3.14790 | 21990 ft | 294 kts | 292° |
| 2026-04-27 02:56 | 52.11816 | -3.17841 | 21989 ft | 294 kts | 292° |
| 2026-04-27 02:56 | 52.12634 | -3.20891 | 21988 ft | 294 kts | 292° |
| 2026-04-27 02:56 | 52.13455 | -3.23949 | 21987 ft | 295 kts | 291° |
| 2026-04-27 02:57 | 52.14263 | -3.26965 | 21990 ft | 295 kts | 291° |
| 2026-04-27 02:57 | 52.15080 | -3.30023 | 21987 ft | 295 kts | 291° |
| 2026-04-27 02:57 | 52.15898 | -3.33087 | 21992 ft | 295 kts | 291° |
| 2026-04-27 02:57 | 52.16716 | -3.36145 | 21990 ft | 295 kts | 291° |
| 2026-04-27 02:58 | 52.17536 | -3.39225 | 21989 ft | 296 kts | 291° |
| 2026-04-27 02:58 | 52.18354 | -3.42301 | 21988 ft | 296 kts | 291° |
| 2026-04-27 02:58 | 52.19172 | -3.45378 | 21987 ft | 296 kts | 291° |
| 2026-04-27 02:58 | 52.19989 | -3.48460 | 21988 ft | 296 kts | 291° |
| 2026-04-27 02:59 | 52.20806 | -3.51542 | 21985 ft | 296 kts | 291° |
| 2026-04-27 02:59 | 52.21622 | -3.54628 | 21993 ft | 296 kts | 291° |
| 2026-04-27 02:59 | 52.22439 | -3.57714 | 21989 ft | 296 kts | 291° |
| 2026-04-27 02:59 | 52.23253 | -3.60806 | 21990 ft | 297 kts | 291° |
| 2026-04-27 03:00 | 52.24067 | -3.63898 | 21987 ft | 297 kts | 291° |
| 2026-04-27 03:00 | 52.24883 | -3.66992 | 21986 ft | 297 kts | 291° |
| 2026-04-27 03:00 | 52.25697 | -3.70090 | 21989 ft | 297 kts | 291° |
| 2026-04-27 03:00 | 52.26509 | -3.73190 | 21994 ft | 297 kts | 291° |
| 2026-04-27 03:01 | 52.27321 | -3.76290 | 21993 ft | 297 kts | 291° |
| 2026-04-27 03:01 | 52.28134 | -3.79393 | 21989 ft | 297 kts | 291° |
| 2026-04-27 03:01 | 52.28947 | -3.82504 | 21992 ft | 298 kts | 291° |
| 2026-04-27 03:01 | 52.29758 | -3.85613 | 21996 ft | 298 kts | 291° |
| 2026-04-27 03:02 | 52.30570 | -3.88723 | 21994 ft | 298 kts | 291° |
| 2026-04-27 03:02 | 52.31381 | -3.91840 | 21998 ft | 298 kts | 291° |
| 2026-04-27 03:02 | 52.32190 | -3.94959 | 21995 ft | 298 kts | 291° |
| 2026-04-27 03:02 | 52.33000 | -3.98072 | 21996 ft | 298 kts | 291° |
| 2026-04-27 03:03 | 52.33808 | -4.01194 | 21997 ft | 298 kts | 291° |
| 2026-04-27 03:03 | 52.35420 | -4.07430 | 22000 ft | 298 kts | 291° |
| 2026-04-27 03:03 | 52.36226 | -4.10544 | 21998 ft | 298 kts | 291° |
| 2026-04-27 03:04 | 52.37035 | -4.13679 | 21999 ft | 298 kts | 291° |
| 2026-04-27 03:04 | 52.37838 | -4.16805 | 21997 ft | 298 kts | 291° |
| 2026-04-27 03:04 | 52.38642 | -4.19934 | 22000 ft | 298 kts | 291° |
| 2026-04-27 03:04 | 52.39446 | -4.23063 | 21998 ft | 298 kts | 291° |
| 2026-04-27 03:05 | 52.40249 | -4.26193 | 21998 ft | 298 kts | 291° |
| 2026-04-27 03:05 | 52.41050 | -4.29323 | 21998 ft | 298 kts | 291° |
| 2026-04-27 03:05 | 52.41852 | -4.32455 | 21998 ft | 298 kts | 291° |
| 2026-04-27 03:05 | 52.42650 | -4.35585 | 21998 ft | 298 kts | 291° |
| 2026-04-27 03:06 | 52.43476 | -4.38695 | 22002 ft | 298 kts | 293° |
| 2026-04-27 03:06 | 52.44371 | -4.41755 | 22005 ft | 298 kts | 295° |
| 2026-04-27 03:06 | 52.45281 | -4.44809 | 22006 ft | 298 kts | 294° |
| 2026-04-27 03:06 | 52.46178 | -4.47873 | 22007 ft | 298 kts | 294° |
| 2026-04-27 03:07 | 52.47066 | -4.50941 | 22007 ft | 298 kts | 294° |
| 2026-04-27 03:07 | 52.47956 | -4.54013 | 22007 ft | 298 kts | 294° |
| 2026-04-27 03:07 | 52.48846 | -4.57083 | 22008 ft | 298 kts | 294° |
| 2026-04-27 03:07 | 52.49730 | -4.60158 | 22007 ft | 298 kts | 294° |
| 2026-04-27 03:08 | 52.50600 | -4.63241 | 22008 ft | 298 kts | 293° |
| 2026-04-27 03:08 | 52.51463 | -4.66335 | 22008 ft | 298 kts | 293° |
| 2026-04-27 03:08 | 52.52321 | -4.69424 | 22007 ft | 298 kts | 293° |
| 2026-04-27 03:08 | 52.53177 | -4.72520 | 22008 ft | 297 kts | 293° |
| 2026-04-27 03:09 | 52.54030 | -4.75611 | 22008 ft | 297 kts | 293° |
| 2026-04-27 03:09 | 52.54881 | -4.78705 | 22008 ft | 297 kts | 293° |
| 2026-04-27 03:09 | 52.55730 | -4.81806 | 22008 ft | 297 kts | 293° |
| 2026-04-27 03:09 | 52.56578 | -4.84904 | 22008 ft | 297 kts | 293° |
| 2026-04-27 03:10 | 52.57421 | -4.88000 | 22008 ft | 297 kts | 293° |
| 2026-04-27 03:10 | 52.58263 | -4.91102 | 22008 ft | 297 kts | 293° |
| 2026-04-27 03:10 | 52.59103 | -4.94207 | 22008 ft | 297 kts | 293° |
| 2026-04-27 03:10 | 52.59941 | -4.97315 | 22008 ft | 297 kts | 294° |
| 2026-04-27 03:11 | 52.60768 | -5.00429 | 22008 ft | 296 kts | 294° |
| 2026-04-27 03:11 | 52.61775 | -5.03382 | 22008 ft | 297 kts | 302° |
| 2026-04-27 03:11 | 52.62878 | -5.06253 | 22008 ft | 297 kts | 301° |
| 2026-04-27 03:11 | 52.63893 | -5.09219 | 22010 ft | 297 kts | 297° |
| 2026-04-27 03:12 | 52.64777 | -5.12289 | 22015 ft | 297 kts | 294° |
| 2026-04-27 03:12 | 52.65613 | -5.15393 | 22016 ft | 296 kts | 294° |
| 2026-04-27 03:12 | 52.66447 | -5.18496 | 22017 ft | 296 kts | 294° |
| 2026-04-27 03:12 | 52.67292 | -5.21594 | 22017 ft | 296 kts | 295° |
| 2026-04-27 03:13 | 52.68154 | -5.24676 | 22016 ft | 296 kts | 295° |
| 2026-04-27 03:13 | 52.69023 | -5.27762 | 22016 ft | 296 kts | 295° |
| 2026-04-27 03:13 | 52.69888 | -5.30847 | 22016 ft | 297 kts | 295° |
| 2026-04-27 03:13 | 52.70754 | -5.33932 | 22017 ft | 297 kts | 295° |
| 2026-04-27 03:14 | 52.71619 | -5.37019 | 22016 ft | 297 kts | 295° |
| 2026-04-27 03:14 | 52.72483 | -5.40108 | 22016 ft | 297 kts | 295° |
| 2026-04-27 03:14 | 52.73347 | -5.43198 | 22016 ft | 297 kts | 295° |
| 2026-04-27 03:14 | 52.74198 | -5.46249 | 22017 ft | 297 kts | 295° |
| 2026-04-27 03:15 | 52.75070 | -5.49383 | 22020 ft | 297 kts | 295° |
| 2026-04-27 03:15 | 52.75834 | -5.52549 | 22024 ft | 297 kts | 288° |
| 2026-04-27 03:15 | 52.76379 | -5.55789 | 22025 ft | 297 kts | 285° |
| 2026-04-27 03:15 | 52.76888 | -5.59137 | 22026 ft | 297 kts | 285° |
| 2026-04-27 03:16 | 52.77227 | -5.61323 | 22026 ft | 297 kts | 286° |
| 2026-04-27 03:16 | 52.77769 | -5.64611 | 22026 ft | 297 kts | 286° |
| 2026-04-27 03:16 | 52.78306 | -5.67909 | 22026 ft | 297 kts | 286° |
| 2026-04-27 03:16 | 52.79083 | -5.72241 | 22026 ft | 297 kts | 288° |
| 2026-04-27 03:17 | 52.79688 | -5.75508 | 22026 ft | 297 kts | 288° |
| 2026-04-27 03:17 | 52.80090 | -5.77719 | 22026 ft | 298 kts | 287° |
| 2026-04-27 03:17 | 52.80662 | -5.81005 | 22026 ft | 298 kts | 287° |
| 2026-04-27 03:17 | 52.81225 | -5.84290 | 22026 ft | 298 kts | 287° |
| 2026-04-27 03:18 | 52.81791 | -5.87588 | 22026 ft | 298 kts | 287° |
| 2026-04-27 03:18 | 52.82352 | -5.90884 | 22026 ft | 298 kts | 287° |
| 2026-04-27 03:18 | 52.82912 | -5.94176 | 22026 ft | 298 kts | 287° |
| 2026-04-27 03:18 | 52.83471 | -5.97475 | 22025 ft | 298 kts | 287° |
| 2026-04-27 03:19 | 52.84029 | -6.00771 | 22029 ft | 298 kts | 287° |
| 2026-04-27 03:19 | 52.84586 | -6.04063 | 22032 ft | 298 kts | 287° |
| 2026-04-27 03:19 | 52.85142 | -6.07364 | 22034 ft | 298 kts | 287° |
| 2026-04-27 03:19 | 52.85700 | -6.10665 | 22035 ft | 298 kts | 287° |
| 2026-04-27 03:20 | 52.86255 | -6.13966 | 22036 ft | 298 kts | 287° |
| 2026-04-27 03:20 | 52.86809 | -6.17268 | 22035 ft | 298 kts | 287° |
| 2026-04-27 03:20 | 52.87363 | -6.20570 | 22036 ft | 298 kts | 287° |
| 2026-04-27 03:20 | 52.87914 | -6.23874 | 22036 ft | 298 kts | 287° |
| 2026-04-27 03:21 | 52.88466 | -6.27179 | 22036 ft | 298 kts | 287° |
| 2026-04-27 03:21 | 52.89015 | -6.30483 | 22036 ft | 298 kts | 287° |
| 2026-04-27 03:21 | 52.89566 | -6.33791 | 22038 ft | 298 kts | 287° |
| 2026-04-27 03:21 | 52.90114 | -6.37090 | 22041 ft | 298 kts | 287° |
| 2026-04-27 03:22 | 52.90660 | -6.40396 | 22043 ft | 298 kts | 287° |
| 2026-04-27 03:22 | 52.91207 | -6.43704 | 22045 ft | 297 kts | 287° |
| 2026-04-27 03:22 | 52.91753 | -6.47009 | 22041 ft | 297 kts | 287° |
| 2026-04-27 03:22 | 52.92289 | -6.50272 | 22040 ft | 297 kts | 287° |
| 2026-04-27 03:23 | 52.92831 | -6.53576 | 22038 ft | 297 kts | 287° |
| 2026-04-27 03:23 | 52.93373 | -6.56879 | 22038 ft | 297 kts | 287° |
| 2026-04-27 03:23 | 52.93912 | -6.60177 | 22045 ft | 296 kts | 287° |
| 2026-04-27 03:23 | 52.94450 | -6.63474 | 22047 ft | 296 kts | 287° |
| 2026-04-27 03:24 | 52.94990 | -6.66775 | 22046 ft | 297 kts | 287° |
| 2026-04-27 03:24 | 52.95526 | -6.70077 | 22047 ft | 297 kts | 287° |
| 2026-04-27 03:24 | 52.96063 | -6.73381 | 22043 ft | 297 kts | 287° |
| 2026-04-27 03:24 | 52.96601 | -6.76690 | 22044 ft | 297 kts | 287° |
| 2026-04-27 03:25 | 52.97136 | -6.79998 | 22044 ft | 297 kts | 287° |
| 2026-04-27 03:25 | 52.97668 | -6.83307 | 22046 ft | 297 kts | 287° |
| 2026-04-27 03:25 | 52.98201 | -6.86612 | 22043 ft | 297 kts | 287° |
| 2026-04-27 03:25 | 52.98733 | -6.89920 | 22043 ft | 297 kts | 287° |
| 2026-04-27 03:26 | 52.99265 | -6.93228 | 22043 ft | 297 kts | 287° |
| 2026-04-27 03:26 | 52.99795 | -6.96536 | 22041 ft | 297 kts | 287° |
| 2026-04-27 03:26 | 53.00322 | -6.99846 | 22038 ft | 297 kts | 287° |
| 2026-04-27 03:26 | 53.00850 | -7.03153 | 22036 ft | 297 kts | 287° |
| 2026-04-27 03:27 | 53.01378 | -7.06463 | 22036 ft | 296 kts | 287° |
| 2026-04-27 03:27 | 53.01903 | -7.09769 | 22036 ft | 296 kts | 287° |
| 2026-04-27 03:27 | 53.02428 | -7.13081 | 22036 ft | 296 kts | 287° |
| 2026-04-27 03:27 | 53.02952 | -7.16387 | 22035 ft | 296 kts | 287° |
| 2026-04-27 03:28 | 53.03475 | -7.19702 | 22035 ft | 296 kts | 287° |
| 2026-04-27 03:28 | 53.03997 | -7.23013 | 22036 ft | 296 kts | 287° |
| 2026-04-27 03:28 | 53.04518 | -7.26322 | 22035 ft | 296 kts | 287° |
| 2026-04-27 03:28 | 53.05039 | -7.29637 | 22039 ft | 296 kts | 287° |
| 2026-04-27 03:29 | 53.05559 | -7.32951 | 22042 ft | 296 kts | 287° |
| 2026-04-27 03:29 | 53.06074 | -7.36265 | 22043 ft | 296 kts | 287° |
| 2026-04-27 03:29 | 53.06591 | -7.39577 | 22044 ft | 296 kts | 287° |
| 2026-04-27 03:29 | 53.07109 | -7.42890 | 22044 ft | 296 kts | 287° |
| 2026-04-27 03:30 | 53.07624 | -7.46205 | 22044 ft | 296 kts | 287° |
| 2026-04-27 03:30 | 53.08138 | -7.49517 | 22045 ft | 296 kts | 287° |
| 2026-04-27 03:30 | 53.08652 | -7.52838 | 22045 ft | 296 kts | 287° |
| 2026-04-27 03:30 | 53.09222 | -7.56107 | 22044 ft | 291 kts | 296° |
| 2026-04-27 03:31 | 53.10471 | -7.58679 | 22048 ft | 288 kts | 325° |
| 2026-04-27 03:31 | 53.12322 | -7.59854 | 22050 ft | 289 kts | 352° |
| 2026-04-27 03:31 | 53.14338 | -7.60021 | 22044 ft | 292 kts | 358° |
| 2026-04-27 03:31 | 53.16369 | -7.60060 | 22046 ft | 292 kts | 358° |
| 2026-04-27 03:32 | 53.18402 | -7.60170 | 22047 ft | 292 kts | 355° |
| 2026-04-27 03:32 | 53.20431 | -7.60409 | 22045 ft | 292 kts | 354° |
| 2026-04-27 03:32 | 53.22453 | -7.60694 | 22045 ft | 292 kts | 354° |
| 2026-04-27 03:32 | 53.24475 | -7.60956 | 22045 ft | 292 kts | 354° |
| 2026-04-27 03:33 | 53.26498 | -7.61213 | 22044 ft | 292 kts | 354° |
| 2026-04-27 03:33 | 53.28521 | -7.61470 | 22044 ft | 291 kts | 354° |
| 2026-04-27 03:33 | 53.30545 | -7.61726 | 22044 ft | 291 kts | 354° |
| 2026-04-27 03:33 | 53.32566 | -7.61982 | 22044 ft | 291 kts | 354° |
| 2026-04-27 03:34 | 53.34589 | -7.62238 | 22045 ft | 291 kts | 354° |
| 2026-04-27 03:34 | 53.36608 | -7.62493 | 22045 ft | 291 kts | 354° |
| 2026-04-27 03:34 | 53.38629 | -7.62750 | 22044 ft | 291 kts | 354° |
| 2026-04-27 03:34 | 53.40647 | -7.63008 | 22044 ft | 291 kts | 354° |
| 2026-04-27 03:35 | 53.42665 | -7.63266 | 22044 ft | 291 kts | 354° |
| 2026-04-27 03:35 | 53.44682 | -7.63523 | 22047 ft | 291 kts | 354° |
| 2026-04-27 03:35 | 53.46698 | -7.63778 | 22047 ft | 291 kts | 354° |
| 2026-04-27 03:35 | 53.48716 | -7.64035 | 22045 ft | 291 kts | 354° |
| 2026-04-27 03:36 | 53.50732 | -7.64295 | 22038 ft | 291 kts | 354° |
| 2026-04-27 03:36 | 53.52792 | -7.64555 | 21323 ft | 305 kts | 354° |
| 2026-04-27 03:36 | 53.54929 | -7.64829 | 20773 ft | 309 kts | 354° |
| 2026-04-27 03:36 | 53.57066 | -7.65106 | 20355 ft | 307 kts | 354° |
| 2026-04-27 03:37 | 53.59184 | -7.65379 | 19957 ft | 305 kts | 354° |
| 2026-04-27 03:37 | 53.61289 | -7.65650 | 19573 ft | 303 kts | 354° |
| 2026-04-27 03:37 | 53.63382 | -7.65918 | 19205 ft | 301 kts | 354° |
| 2026-04-27 03:37 | 53.65462 | -7.66185 | 18846 ft | 299 kts | 354° |
| 2026-04-27 03:38 | 53.67532 | -7.66451 | 18502 ft | 297 kts | 354° |
| 2026-04-27 03:38 | 53.69587 | -7.66719 | 18164 ft | 296 kts | 354° |
| 2026-04-27 03:38 | 53.71635 | -7.66983 | 17846 ft | 294 kts | 354° |
| 2026-04-27 03:38 | 53.73672 | -7.67247 | 17539 ft | 293 kts | 354° |
| 2026-04-27 03:39 | 53.75702 | -7.67508 | 17237 ft | 292 kts | 354° |
| 2026-04-27 03:39 | 53.77718 | -7.67770 | 16955 ft | 290 kts | 353° |
| 2026-04-27 03:39 | 53.79732 | -7.68031 | 16655 ft | 290 kts | 354° |
| 2026-04-27 03:39 | 53.81739 | -7.68291 | 16387 ft | 289 kts | 354° |
| 2026-04-27 03:40 | 53.83737 | -7.68551 | 16128 ft | 288 kts | 354° |
| 2026-04-27 03:40 | 53.85722 | -7.68806 | 15810 ft | 282 kts | 354° |
| 2026-04-27 03:40 | 53.87682 | -7.69062 | 15170 ft | 282 kts | 353° |
| 2026-04-27 03:40 | 53.89631 | -7.69323 | 14651 ft | 280 kts | 353° |
| 2026-04-27 03:41 | 53.91570 | -7.69581 | 14181 ft | 279 kts | 353° |
| 2026-04-27 03:41 | 53.93499 | -7.69836 | 13782 ft | 277 kts | 353° |
| 2026-04-27 03:41 | 53.95418 | -7.70083 | 13402 ft | 276 kts | 353° |
| 2026-04-27 03:41 | 53.97306 | -7.70468 | 12984 ft | 272 kts | 342° |
| 2026-04-27 03:42 | 53.98869 | -7.72178 | 12582 ft | 270 kts | 311° |
| 2026-04-27 03:42 | 53.99680 | -7.75025 | 12202 ft | 270 kts | 286° |
| 2026-04-27 03:42 | 54.00003 | -7.78168 | 11804 ft | 270 kts | 280° |
| 2026-04-27 03:42 | 54.00235 | -7.81288 | 11440 ft | 269 kts | 279° |
| 2026-04-27 03:43 | 54.00475 | -7.84478 | 11078 ft | 268 kts | 279° |
| 2026-04-27 03:43 | 54.00753 | -7.87561 | 10734 ft | 267 kts | 281° |
| 2026-04-27 03:43 | 54.01064 | -7.90659 | 10407 ft | 265 kts | 281° |
| 2026-04-27 03:43 | 54.01326 | -7.93755 | 10041 ft | 265 kts | 273° |
| 2026-04-27 03:44 | 54.01091 | -7.96855 | 9665 ft | 265 kts | 260° |
| 2026-04-27 03:44 | 54.00665 | -7.99910 | 9310 ft | 266 kts | 258° |
| 2026-04-27 03:44 | 54.00229 | -8.02958 | 8965 ft | 265 kts | 258° |
| 2026-04-27 03:44 | 53.99835 | -8.06054 | 8671 ft | 263 kts | 260° |
| 2026-04-27 03:45 | 53.99491 | -8.09048 | 8405 ft | 261 kts | 261° |
| 2026-04-27 03:45 | 53.99146 | -8.12070 | 8116 ft | 260 kts | 260° |
| 2026-04-27 03:45 | 53.98797 | -8.15075 | 7839 ft | 259 kts | 260° |
| 2026-04-27 03:45 | 53.98447 | -8.18074 | 7564 ft | 258 kts | 260° |
| 2026-04-27 03:46 | 53.98090 | -8.21055 | 7293 ft | 257 kts | 260° |
| 2026-04-27 03:46 | 53.97746 | -8.24009 | 7014 ft | 248 kts | 261° |
| 2026-04-27 03:46 | 53.97454 | -8.26801 | 6635 ft | 233 kts | 261° |
| 2026-04-27 03:46 | 53.97174 | -8.29448 | 6247 ft | 225 kts | 261° |
| 2026-04-27 03:47 | 53.96880 | -8.32043 | 5934 ft | 221 kts | 260° |
| 2026-04-27 03:47 | 53.96583 | -8.34598 | 5588 ft | 220 kts | 260° |
| 2026-04-27 03:47 | 53.96287 | -8.37142 | 5243 ft | 219 kts | 260° |
| 2026-04-27 03:47 | 53.95993 | -8.39673 | 4898 ft | 218 kts | 261° |
| 2026-04-27 03:48 | 53.95698 | -8.42199 | 4562 ft | 218 kts | 261° |
| 2026-04-27 03:48 | 53.95404 | -8.44715 | 4224 ft | 217 kts | 261° |
| 2026-04-27 03:48 | 53.95112 | -8.47224 | 3885 ft | 217 kts | 261° |
| 2026-04-27 03:48 | 53.94813 | -8.49728 | 3548 ft | 216 kts | 260° |
| 2026-04-27 03:49 | 53.94505 | -8.52146 | 3503 ft | 203 kts | 260° |
| 2026-04-27 03:49 | 53.94229 | -8.54420 | 3484 ft | 191 kts | 261° |
| 2026-04-27 03:49 | 53.93983 | -8.56581 | 3388 ft | 183 kts | 262° |
| 2026-04-27 03:49 | 53.93752 | -8.58681 | 3216 ft | 177 kts | 262° |
| 2026-04-27 03:50 | 53.93514 | -8.60724 | 2955 ft | 174 kts | 261° |
| 2026-04-27 03:50 | 53.93280 | -8.62679 | 2734 ft | 164 kts | 261° |
| 2026-04-27 03:50 | 53.93063 | -8.64508 | 2517 ft | 154 kts | 261° |
| 2026-04-27 03:50 | 53.92854 | -8.66234 | 2325 ft | 146 kts | 261° |
| 2026-04-27 03:51 | 53.92657 | -8.67893 | 2137 ft | 141 kts | 260° |
| 2026-04-27 03:51 | 53.92474 | -8.69499 | 1951 ft | 137 kts | 260° |
| 2026-04-27 03:51 | 53.92295 | -8.71076 | 1771 ft | 134 kts | 260° |
| 2026-04-27 03:51 | 53.92134 | -8.72527 | 1603 ft | 120 kts | 261° |
| 2026-04-27 03:52 | 53.91973 | -8.73910 | 1443 ft | 119 kts | 260° |
| 2026-04-27 03:52 | 53.91807 | -8.75279 | 1289 ft | 118 kts | 259° |
| 2026-04-27 03:52 | 53.91642 | -8.76640 | 1129 ft | 118 kts | 260° |
| 2026-04-27 03:52 | 53.91479 | -8.78000 | 974 ft | 117 kts | 260° |
| 2026-04-27 03:53 | 53.91319 | -8.79355 | 820 ft | 117 kts | 259° |
| 2026-04-27 03:53 | 53.91162 | -8.80707 | 670 ft | 115 kts | 260° |
| 2026-04-27 03:53 | 53.91031 | -8.81878 | 638 ft | 88 kts | 259° |
| 2026-04-27 03:53 | 53.90967 | -8.82419 | 641 ft | 20 kts | 264° |
| 2026-04-27 03:54 | 53.90958 | -8.82522 | 640 ft | 3 kts | 195° |
| 2026-04-27 03:54 | 53.90953 | -8.82504 | 640 ft | 7 kts | 85° |
| 2026-04-27 03:54 | 53.90963 | -8.82414 | 641 ft | 9 kts | 78° |
| 2026-04-27 03:54 | 53.90975 | -8.82301 | 641 ft | 11 kts | 79° |
| 2026-04-27 03:55 | 53.90992 | -8.82169 | 640 ft | 12 kts | 78° |
| 2026-04-27 03:55 | 53.91009 | -8.82033 | 639 ft | 12 kts | 78° |
| 2026-04-27 03:55 | 53.91024 | -8.81897 | 638 ft | 12 kts | 79° |
| 2026-04-27 03:55 | 53.91040 | -8.81757 | 637 ft | 12 kts | 79° |
| 2026-04-27 03:56 | 53.91055 | -8.81626 | 637 ft | 11 kts | 78° |
| 2026-04-27 03:56 | 53.91070 | -8.81503 | 637 ft | 11 kts | 78° |
| 2026-04-27 03:56 | 53.91085 | -8.81375 | 637 ft | 11 kts | 79° |
| 2026-04-27 03:56 | 53.91100 | -8.81251 | 638 ft | 12 kts | 78° |
| 2026-04-27 03:57 | 53.91133 | -8.80979 | 640 ft | 19 kts | 78° |
| 2026-04-27 03:57 | 53.91156 | -8.80869 | 641 ft | 7 kts | 25° |
| 2026-04-27 03:57 | 53.91203 | -8.80874 | 640 ft | 8 kts | 348° |
| 2026-04-27 03:57 | 53.91262 | -8.80894 | 639 ft | 9 kts | 349° |
| 2026-04-27 03:58 | 53.91321 | -8.80914 | 639 ft | 7 kts | 348° |
| 2026-04-27 03:58 | 53.91349 | -8.80903 | 639 ft | 5 kts | 31° |
| 2026-04-27 03:58 | 53.91385 | -8.80899 | 639 ft | 6 kts | 347° |
| 2026-04-27 03:58 | 53.91402 | -8.80910 | 639 ft | 2 kts | 318° |
| 2026-04-27 03:59 | 53.91404 | -8.80926 | 639 ft | 0 kts | 265° |
| 2026-04-27 03:59 | 53.91404 | -8.80933 | 639 ft | 1 kts | 283° |
| 2026-04-27 03:59 | 53.91406 | -8.80940 | 639 ft | 0 kts | 288° |